Time;durP1;ratioP1;P1;durP2;ratioP2;P2;SDS_P1;SDS_P2;PMS_P1;PMS_P2;Temp;Humidity;BMP_temperature;BMP_pressure;BME280_temperature;BME280_humidity;BME280_pressure;Samples;Min_cycle;Max_cycle;Signal;HPM_P1;HPM_P2
2022/12/04 00:01:16;;;;;;;;;29.50;23.00;;;;;0.97;79.79;100240.19;5068268;28;45399;-88
2022/12/04 00:03:42;;;;;;;;;39.50;32.50;;;;;1.76;79.39;100361.88;5081328;28;45495;-87
2022/12/04 00:06:16;;;;;;;;;24.50;22.75;;;;;2.51;79.01;100494.06;5080191;28;45354;-86
2022/12/04 00:08:42;;;;;;;;;30.00;25.25;;;;;2.48;79.51;100500.97;5062588;28;45422;-87
2022/12/04 00:11:09;;;;;;;;;31.50;25.75;;;;;2.46;79.27;100502.72;5083725;28;45310;-87
2022/12/04 00:13:35;;;;;;;;;33.25;28.50;;;;;2.48;79.27;100497.50;5062535;28;47502;-88
2022/12/04 00:16:07;;;;;;;;;35.50;28.75;;;;;1.66;78.73;100363.50;5072338;28;45465;-88
2022/12/04 00:18:33;;;;;;;;;32.75;28.25;;;;;2.10;80.13;100432.72;5058281;28;45357;-87
2022/12/04 00:20:58;;;;;;;;;30.75;25.25;;;;;2.42;79.93;100490.47;5059055;28;45582;-88
2022/12/04 00:23:23;;;;;;;;;27.75;27.25;;;;;1.61;79.53;100362.59;5040543;28;46665;-87
2022/12/04 00:25:49;;;;;;;;;23.75;18.25;;;;;1.81;79.15;100381.09;5040819;28;45272;-86
2022/12/04 00:28:15;;;;;;;;;31.50;28.50;;;;;1.96;80.02;100424.72;5074271;28;45362;-86
2022/12/04 00:30:43;;;;;;;;;26.75;25.75;;;;;2.44;79.57;100493.09;5051662;28;45297;-87
2022/12/04 00:33:08;;;;;;;;;35.25;29.25;;;;;1.64;80.27;100356.53;5062239;28;45341;-88
2022/12/04 00:35:33;;;;;;;;;32.75;26.00;;;;;1.89;79.65;100384.66;5042168;28;45402;-87
2022/12/04 00:37:59;;;;;;;;;29.25;25.75;;;;;1.89;79.76;100391.59;5069963;28;45529;-87
2022/12/04 00:40:24;;;;;;;;;35.50;31.50;;;;;2.05;79.53;100409.19;5080157;28;45465;-88
2022/12/04 00:42:49;;;;;;;;;27.00;25.25;;;;;2.03;79.45;100407.41;5061370;28;48165;-88
2022/12/04 00:45:15;;;;;;;;;38.00;31.50;;;;;2.43;79.91;100473.06;5051584;28;45546;-88
2022/12/04 00:47:42;;;;;;;;;24.50;21.75;;;;;2.05;79.92;100400.47;5038820;28;45506;-87
2022/12/04 00:50:07;;;;;;;;;33.00;30.75;;;;;1.46;79.20;100308.56;5060765;28;45600;-87
2022/12/04 00:52:33;;;;;;;;;40.75;30.50;;;;;1.57;79.61;100330.38;5079483;28;45334;-87
2022/12/04 00:54:58;;;;;;;;;31.25;24.75;;;;;1.64;79.73;100330.47;5045776;28;45838;-87
2022/12/04 00:57:23;;;;;;;;;25.75;22.00;;;;;2.53;79.29;100480.16;5063722;28;45308;-87
2022/12/04 00:59:49;;;;;;;;;33.25;27.50;;;;;1.99;78.96;100403.91;5065932;28;45617;-87
2022/12/04 01:02:14;;;;;;;;;28.75;23.00;;;;;2.47;79.86;100494.00;5083919;28;45260;-87
2022/12/04 01:04:41;;;;;;;;;36.00;26.50;;;;;2.22;79.21;100439.81;5065141;28;45366;-88
2022/12/04 01:07:06;;;;;;;;;29.25;25.75;;;;;2.08;79.38;100437.91;5065346;28;45482;-88
2022/12/04 01:09:32;;;;;;;;;21.75;13.50;;;;;2.22;79.43;100440.69;5064345;28;45528;-87
2022/12/04 01:11:57;;;;;;;;;27.75;23.25;;;;;1.94;79.30;100408.16;5077387;28;46118;-87
2022/12/04 01:14:23;;;;;;;;;23.75;21.50;;;;;1.95;79.54;100408.19;5040915;28;45485;-86
2022/12/04 01:16:48;;;;;;;;;35.75;24.50;;;;;1.97;79.65;100399.50;5071481;28;45433;-85
2022/12/04 01:19:13;;;;;;;;;29.50;22.75;;;;;2.41;79.82;100482.63;5061678;28;45475;-85
2022/12/04 01:21:39;;;;;;;;;24.00;22.75;;;;;2.44;79.79;100487.88;5081191;28;45618;-87
2022/12/04 01:24:05;;;;;;;;;34.25;26.50;;;;;1.48;79.28;100322.44;5074452;28;45529;-88
2022/12/04 01:26:31;;;;;;;;;33.25;25.50;;;;;1.81;79.84;100368.06;5060007;28;45398;-87
2022/12/04 01:28:56;;;;;;;;;31.75;26.50;;;;;1.45;78.92;100316.34;5082101;28;45637;-87
2022/12/04 01:31:23;;;;;;;;;29.75;26.75;;;;;1.51;79.19;100324.25;5063149;28;45560;-87
2022/12/04 01:33:49;;;;;;;;;21.00;19.00;;;;;1.33;79.69;100283.19;5042597;28;45365;-87
2022/12/04 01:36:18;;;;;;;;;34.50;29.00;;;;;1.87;79.61;100385.50;5033499;28;45484;-87
2022/12/04 01:38:43;;;;;;;;;28.50;21.50;;;;;1.56;79.88;100333.88;5036441;28;45435;-87
2022/12/04 01:41:11;;;;;;;;;36.25;31.25;;;;;2.12;80.05;100444.03;5061231;28;45434;-87
2022/12/04 01:43:38;;;;;;;;;33.25;28.00;;;;;1.54;79.65;100339.91;5058795;28;45424;-87
2022/12/04 01:46:04;;;;;;;;;37.00;29.25;;;;;2.33;79.65;100471.25;5059928;28;45432;-87
2022/12/04 01:48:45;;;;;;;;;42.25;34.25;;;;;1.16;79.31;100273.41;5053188;28;45296;-88
2022/12/04 01:51:24;;;;;;;;;38.25;32.00;;;;;2.06;80.26;100446.56;5036064;28;45609;-88
2022/12/04 01:53:53;;;;;;;;;33.75;29.25;;;;;2.28;79.88;100487.69;5069073;28;45462;-86
2022/12/04 01:56:23;;;;;;;;;34.50;30.25;;;;;2.29;79.87;100478.13;5061660;28;45434;-87
2022/12/04 01:58:54;;;;;;;;;30.00;25.75;;;;;2.25;80.60;100472.00;5082524;28;45273;-87
2022/12/04 02:01:20;;;;;;;;;41.00;33.25;;;;;1.34;79.95;100321.41;5059109;28;45387;-87
2022/12/04 02:03:45;;;;;;;;;36.75;29.75;;;;;1.46;79.52;100342.41;5054585;28;45396;-88
2022/12/04 02:06:11;;;;;;;;;31.25;30.25;;;;;2.05;79.87;100436.97;5050773;28;45334;-87
2022/12/04 02:08:37;;;;;;;;;28.25;26.00;;;;;1.26;79.87;100296.97;5052991;28;45503;-87
2022/12/04 02:11:33;;;;;;;;;30.75;25.75;;;;;1.83;79.60;100395.00;5057512;28;45835;-87
2022/12/04 02:14:29;;;;;;;;;31.50;24.00;;;;;1.99;79.42;100416.03;5055452;28;45371;-87
2022/12/04 02:17:08;;;;;;;;;35.50;27.25;;;;;2.34;79.56;100480.78;5056141;28;45594;-88
2022/12/04 02:20:00;;;;;;;;;32.75;27.50;;;;;1.82;79.85;100392.38;5020284;28;45475;-87
2022/12/04 02:22:50;;;;;;;;;27.75;26.00;;;;;2.35;80.04;100465.16;5020011;28;47335;-88
2022/12/04 02:25:42;;;;;;;;;29.00;25.25;;;;;2.36;80.29;100472.13;5032714;28;46065;-87
2022/12/04 02:28:24;;;;;;;;;32.25;26.00;;;;;2.03;80.21;100418.69;5034045;28;45504;-88
2022/12/04 02:30:54;;;;;;;;;30.75;29.00;;;;;2.42;80.25;100479.19;5059310;28;45427;-88
2022/12/04 02:33:33;;;;;;;;;37.25;31.50;;;;;1.60;79.18;100351.28;5038995;28;48458;-88
2022/12/04 02:36:12;;;;;;;;;38.00;30.25;;;;;1.90;79.48;100375.13;5057293;28;45346;-88
2022/12/04 02:38:54;;;;;;;;;26.25;22.25;;;;;2.41;79.99;100453.94;5039829;28;45440;-87
2022/12/04 02:41:27;;;;;;;;;36.25;30.25;;;;;1.36;79.97;100288.44;5051466;28;45606;-88
2022/12/04 02:44:00;;;;;;;;;32.50;26.50;;;;;2.10;80.04;100409.25;5078905;28;45571;-87
2022/12/04 02:46:43;;;;;;;;;29.50;26.50;;;;;1.78;80.24;100361.06;5061384;28;45415;-88
2022/12/04 02:49:16;;;;;;;;;31.50;29.75;;;;;2.22;79.56;100438.06;5071170;28;45454;-87
2022/12/04 02:51:43;;;;;;;;;32.00;31.50;;;;;2.05;80.40;100396.16;5056636;28;45550;-87
2022/12/04 02:54:34;;;;;;;;;44.75;32.00;;;;;2.22;80.22;100440.69;5038062;28;47102;-88
2022/12/04 02:57:03;;;;;;;;;29.50;25.75;;;;;1.91;79.29;100380.34;5069644;28;45433;-88
2022/12/04 02:59:36;;;;;;;;;31.25;28.00;;;;;2.46;79.94;100474.00;5063892;28;45513;-87
2022/12/04 03:02:10;;;;;;;;;38.75;34.00;;;;;2.34;80.16;100449.50;5058600;28;45522;-87
2022/12/04 03:04:39;;;;;;;;;35.25;28.50;;;;;2.14;79.61;100416.22;5049727;28;46628;-88
2022/12/04 03:07:19;;;;;;;;;33.00;28.50;;;;;0.94;79.66;100207.19;5040591;28;45519;-88
2022/12/04 03:09:51;;;;;;;;;33.25;27.50;;;;;1.95;79.52;100369.06;5035192;28;45409;-88
2022/12/04 03:12:35;;;;;;;;;34.50;33.75;;;;;2.53;79.85;100476.69;5037566;28;45506;-87
2022/12/04 03:15:21;;;;;;;;;33.00;27.50;;;;;1.65;79.96;100306.16;5058452;28;46052;-88
2022/12/04 03:17:54;;;;;;;;;39.50;29.50;;;;;2.14;80.00;100390.16;5056281;28;45450;-87
2022/12/04 03:20:21;;;;;;;;;33.00;30.50;;;;;2.03;79.53;100363.09;5055983;28;45387;-87
2022/12/04 03:22:54;;;;;;;;;38.25;31.50;;;;;1.85;79.51;100338.53;5045755;28;45402;-87
2022/12/04 03:25:25;;;;;;;;;30.75;25.00;;;;;1.76;80.03;100323.69;5059003;28;46474;-88
2022/12/04 03:27:55;;;;;;;;;32.50;29.00;;;;;2.07;79.93;100370.09;5060884;28;45668;-88
2022/12/04 03:30:22;;;;;;;;;39.50;31.25;;;;;2.16;79.77;100382.34;5058183;28;45305;-87
2022/12/04 03:32:57;;;;;;;;;39.50;35.25;;;;;1.94;79.68;100335.16;5058262;28;45265;-88
2022/12/04 03:35:32;;;;;;;;;37.00;31.50;;;;;1.77;79.91;100301.09;5056003;28;46666;-87
2022/12/04 03:38:11;;;;;;;;;28.50;24.00;;;;;2.25;79.90;100387.69;5056151;28;45388;-87
2022/12/04 03:40:40;;;;;;;;;38.25;26.75;;;;;2.28;80.32;100385.97;5039831;28;45381;-88
2022/12/04 03:43:23;;;;;;;;;40.00;25.75;;;;;2.35;79.56;100393.88;5039718;28;45500;-87
2022/12/04 03:46:02;;;;;;;;;39.00;32.75;;;;;2.28;79.67;100393.78;5055214;28;46039;-88
2022/12/04 03:48:39;;;;;;;;;33.75;29.75;;;;;2.45;80.51;100412.25;5054520;28;45400;-86
2022/12/04 03:51:22;;;;;;;;;31.50;28.25;;;;;2.62;80.04;100430.66;5056004;28;45476;-88
2022/12/04 03:54:02;;;;;;;;;41.00;33.25;;;;;2.62;79.46;100424.59;5038898;28;45294;-87
2022/12/04 03:56:35;;;;;;;;;39.50;35.75;;;;;2.11;79.50;100358.81;5057228;28;46511;-88
2022/12/04 03:59:22;;;;;;;;;39.75;34.00;;;;;2.34;79.67;100374.75;5048766;28;45603;-87
2022/12/04 04:01:50;;;;;;;;;43.50;35.75;;;;;1.94;80.14;100278.72;5037173;28;45458;-88
2022/12/04 04:04:29;;;;;;;;;44.00;36.75;;;;;1.72;79.80;100233.28;5032436;28;45480;-87
2022/12/04 04:07:03;;;;;;;;;57.00;46.25;;;;;2.05;80.23;100280.53;5016571;28;47137;-88
2022/12/04 04:09:35;;;;;;;;;41.00;33.00;;;;;1.71;79.60;100228.91;5019406;28;45353;-88
2022/12/04 04:12:09;;;;;;;;;43.75;36.00;;;;;1.73;79.38;100231.53;5020846;28;45590;-88
2022/12/04 04:25:57;;;;;;;;;41.50;35.50;;;;;1.64;79.93;100213.22;5059251;28;45525;-88
2022/12/04 04:28:31;;;;;;;;;37.25;30.25;;;;;2.01;79.85;100276.16;5064641;28;45687;-87
2022/12/04 04:31:22;;;;;;;;;36.75;30.25;;;;;2.36;79.25;100327.78;5072228;28;45402;-87
2022/12/04 04:33:55;;;;;;;;;30.25;28.75;;;;;2.29;79.28;100343.38;5062621;28;45463;-87
2022/12/04 04:36:53;;;;;;;;;35.75;32.25;;;;;2.62;80.05;100388.06;5082802;28;45399;-87
2022/12/04 04:39:29;;;;;;;;;29.25;22.50;;;;;2.14;79.33;100301.47;5074338;28;46993;-87
2022/12/04 04:42:16;;;;;;;;;35.25;26.25;;;;;2.59;79.48;100369.75;5028784;28;45937;-87
2022/12/04 04:45:07;;;;;;;;;36.00;29.00;;;;;2.56;80.24;100373.19;5042984;28;45396;-87
2022/12/04 04:47:38;;;;;;;;;34.00;30.50;;;;;2.56;80.49;100377.56;5058172;28;45502;-87
2022/12/04 04:50:08;;;;;;;;;36.00;33.50;;;;;2.48;79.35;100372.25;5039374;28;46114;-87
2022/12/04 04:52:36;;;;;;;;;34.75;29.50;;;;;2.25;80.26;100325.94;5039152;28;45574;-88
2022/12/04 04:55:03;;;;;;;;;32.25;28.50;;;;;2.12;79.39;100298.00;5066675;28;45422;-87
2022/12/04 04:57:35;;;;;;;;;32.00;29.00;;;;;2.61;80.19;100381.97;5071122;28;45642;-87
2022/12/04 05:00:06;;;;;;;;;39.75;36.25;;;;;2.28;80.06;100319.91;5063454;28;47437;-87
2022/12/04 05:02:32;;;;;;;;;33.25;26.00;;;;;2.61;79.74;100379.34;5044363;28;45379;-87
2022/12/04 05:04:57;;;;;;;;;41.25;31.75;;;;;2.64;79.26;100375.88;5044729;28;45439;-87
2022/12/04 05:07:23;;;;;;;;;36.50;33.50;;;;;2.30;78.90;100312.94;5035974;28;45653;-88
2022/12/04 05:09:48;;;;;;;;;33.75;26.75;;;;;2.48;79.92;100348.78;5056795;28;47175;-88
2022/12/04 05:12:13;;;;;;;;;42.00;31.75;;;;;2.66;79.28;100393.31;5078298;28;45515;-88
2022/12/04 05:14:39;;;;;;;;;34.25;30.25;;;;;2.21;79.41;100318.94;5041549;28;45471;-87
2022/12/04 05:17:05;;;;;;;;;35.25;26.75;;;;;1.81;79.16;100258.56;5039588;28;45446;-88
2022/12/04 05:19:52;;;;;;;;;37.25;26.75;;;;;2.62;79.22;100391.53;5033697;28;47014;-88
2022/12/04 05:22:37;;;;;;;;;36.00;29.75;;;;;2.48;79.75;100354.88;5058831;28;45431;-88
2022/12/04 05:25:04;;;;;;;;;33.00;28.75;;;;;2.60;79.48;100384.56;5019855;28;45543;-88
2022/12/04 05:27:30;;;;;;;;;38.25;32.00;;;;;2.62;79.86;100393.28;5049347;28;45488;-87
2022/12/04 05:29:57;;;;;;;;;36.50;31.25;;;;;2.64;79.62;100408.09;5043930;28;48057;-88
2022/12/04 05:32:24;;;;;;;;;37.50;32.25;;;;;1.96;79.52;100281.34;5046688;28;46132;-87
2022/12/04 05:34:54;;;;;;;;;37.00;30.00;;;;;2.64;79.44;100395.03;5063317;28;45527;-87
2022/12/04 05:37:20;;;;;;;;;32.75;26.25;;;;;1.81;79.16;100276.81;5053910;28;45519;-87
2022/12/04 05:39:45;;;;;;;;;49.75;40.00;;;;;2.61;80.00;100410.66;5056980;28;46349;-88
2022/12/04 05:42:12;;;;;;;;;32.25;30.00;;;;;1.99;79.90;100316.97;5038214;28;45545;-87
2022/12/04 05:44:37;;;;;;;;;42.75;37.25;;;;;2.58;80.29;100434.13;5062290;28;45429;-87
2022/12/04 05:47:03;;;;;;;;;37.25;30.25;;;;;2.36;79.16;100411.28;5048467;28;45589;-87
2022/12/04 05:49:29;;;;;;;;;37.00;33.75;;;;;1.65;79.70;100274.91;5064116;28;46537;-87
2022/12/04 05:51:54;;;;;;;;;26.25;26.25;;;;;1.99;79.51;100335.22;5080206;28;45471;-87
2022/12/04 05:54:20;;;;;;;;;37.75;31.25;;;;;1.53;79.58;100245.22;5066186;28;45506;-88
2022/12/04 05:56:45;;;;;;;;;28.25;22.50;;;;;2.26;79.01;100390.31;5026732;28;45440;-88
2022/12/04 05:59:11;;;;;;;;;33.50;28.75;;;;;1.70;79.39;100299.25;5023994;28;46585;-87
2022/12/04 06:01:36;;;;;;;;;37.50;32.00;;;;;1.70;80.29;100299.25;5030788;28;45600;-88
2022/12/04 06:04:02;;;;;;;;;36.25;31.50;;;;;2.57;79.51;100436.72;5064762;28;45501;-87
2022/12/04 06:06:27;;;;;;;;;35.50;32.25;;;;;1.77;79.49;100290.66;5057254;28;45343;-89
2022/12/04 06:08:55;;;;;;;;;40.50;34.00;;;;;1.65;79.85;100288.78;5038450;28;47120;-87
2022/12/04 06:11:25;;;;;;;;;37.25;34.75;;;;;1.89;79.43;100331.66;5038184;28;45423;-87
2022/12/04 06:13:52;;;;;;;;;30.75;25.00;;;;;2.64;78.83;100431.59;5066371;28;45331;-88
2022/12/04 06:16:23;;;;;;;;;34.00;29.75;;;;;1.65;79.59;100274.91;5057668;28;45545;-88
2022/12/04 06:18:54;;;;;;;;;43.75;31.00;;;;;2.16;79.13;100349.34;5078958;28;46476;-87
2022/12/04 06:21:21;;;;;;;;;41.75;31.50;;;;;2.46;79.68;100402.66;5081046;28;45549;-86
2022/12/04 06:23:47;;;;;;;;;45.75;34.50;;;;;1.03;79.54;100162.16;5064286;28;45546;-88
2022/12/04 06:26:13;;;;;;;;;36.00;25.00;;;;;1.56;79.54;100247.91;5064597;28;45568;-87
2022/12/04 06:28:38;;;;;;;;;33.25;28.00;;;;;1.74;79.37;100275.00;5062098;28;47132;-87
2022/12/04 06:31:07;;;;;;;;;31.75;29.75;;;;;2.62;80.15;100416.75;5058247;28;45521;-86
2022/12/04 06:33:32;;;;;;;;;37.75;34.50;;;;;1.58;79.13;100271.34;5057957;28;45467;-87
2022/12/04 06:35:59;;;;;;;;;35.25;30.25;;;;;2.65;79.55;100435.91;5039780;28;45705;-87
2022/12/04 06:38:24;;;;;;;;;39.75;30.25;;;;;2.03;79.89;100326.59;5038852;28;45360;-88
2022/12/04 06:40:49;;;;;;;;;40.00;34.75;;;;;2.10;79.50;100346.66;5023492;28;44766;-87
2022/12/04 06:43:15;;;;;;;;;47.00;37.00;;;;;2.23;79.45;100382.44;5032339;28;45362;-87
2022/12/04 06:45:40;;;;;;;;;23.25;17.00;;;;;1.42;79.62;100241.63;5061619;28;45523;-88
2022/12/04 06:48:06;;;;;;;;;41.75;34.00;;;;;2.63;79.74;100455.06;5063444;28;45494;-88
2022/12/04 06:50:31;;;;;;;;;37.75;30.75;;;;;2.57;79.85;100453.25;5060278;28;45427;-87
2022/12/04 06:52:56;;;;;;;;;34.75;27.75;;;;;1.60;79.88;100280.91;5080229;28;45404;-87
2022/12/04 06:55:22;;;;;;;;;38.75;34.75;;;;;1.60;80.04;100275.72;5064524;28;45387;-88
2022/12/04 06:57:47;;;;;;;;;38.25;30.75;;;;;1.97;80.17;100334.34;5083210;28;45487;-88
2022/12/04 07:00:13;;;;;;;;;37.00;32.50;;;;;1.25;79.50;100215.38;5060792;28;45388;-87
2022/12/04 07:02:39;;;;;;;;;38.00;29.25;;;;;1.62;79.46;100269.66;5058892;28;45430;-88
2022/12/04 07:05:05;;;;;;;;;38.75;34.00;;;;;2.67;79.59;100443.75;5061323;28;45661;-89
2022/12/04 07:07:30;;;;;;;;;36.00;28.25;;;;;2.09;79.74;100350.13;5088465;28;46483;-89
2022/12/04 07:09:55;;;;;;;;;41.75;37.25;;;;;1.69;79.47;100276.69;5061050;28;45368;-87
2022/12/04 07:12:21;;;;;;;;;39.00;35.25;;;;;2.66;78.94;100432.47;5060095;28;45586;-88
2022/12/04 07:14:46;;;;;;;;;48.75;39.75;;;;;2.33;79.64;100390.38;5069563;28;45229;-88
2022/12/04 07:17:11;;;;;;;;;37.00;34.00;;;;;1.12;79.36;100164.88;5062135;28;46668;-88
2022/12/04 07:19:37;;;;;;;;;36.75;34.50;;;;;1.97;79.54;100321.31;5042592;28;45442;-88
2022/12/04 07:22:03;;;;;;;;;48.00;38.00;;;;;2.23;79.21;100366.81;5041072;28;45356;-88
2022/12/04 07:24:28;;;;;;;;;41.75;34.50;;;;;2.73;79.43;100459.50;5054239;28;45414;-87
2022/12/04 07:26:54;;;;;;;;;39.50;31.25;;;;;2.43;79.71;100413.06;5067472;28;46193;-87
2022/12/04 07:29:19;;;;;;;;;41.75;33.50;;;;;2.13;80.14;100359.72;5057967;28;45396;-87
2022/12/04 07:31:46;;;;;;;;;48.75;40.75;;;;;1.46;79.65;100245.13;5056402;28;45389;-89
2022/12/04 07:34:14;;;;;;;;;52.25;33.75;;;;;1.64;79.74;100265.31;5057118;28;45474;-87
2022/12/04 07:36:40;;;;;;;;;53.75;40.25;;;;;1.17;79.32;100173.63;5056991;28;47498;-89
2022/12/04 07:39:05;;;;;;;;;36.75;33.50;;;;;2.09;79.61;100340.53;5060607;28;45534;-89
2022/12/04 07:41:31;;;;;;;;;36.50;32.00;;;;;1.97;80.08;100327.38;5045126;28;45554;-89
2022/12/04 07:43:56;;;;;;;;;34.25;33.50;;;;;2.16;79.62;100357.16;5082831;28;45220;-89
2022/12/04 07:46:25;;;;;;;;;38.50;30.50;;;;;2.30;79.98;100362.50;5058164;28;46361;-91
2022/12/04 07:48:51;;;;;;;;;43.75;38.50;;;;;1.72;79.49;100271.50;5060811;28;45375;-88
2022/12/04 07:51:21;;;;;;;;;34.25;28.25;;;;;2.12;80.37;100339.72;5077739;28;45411;-86
2022/12/04 07:53:48;;;;;;;;;49.00;38.75;;;;;2.89;79.67;100444.88;5044801;28;45278;-88
2022/12/04 07:56:14;;;;;;;;;35.25;30.75;;;;;2.59;80.08;100394.09;5074966;28;45528;-88
2022/12/04 07:58:40;;;;;;;;;37.00;29.00;;;;;1.20;79.29;100162.34;5057623;28;45411;-88
2022/12/04 08:01:13;;;;;;;;;52.75;39.75;;;;;2.90;79.61;100424.84;5060472;28;45424;-88
2022/12/04 08:03:40;;;;;;;;;43.75;32.00;;;;;2.52;79.82;100367.94;5080789;28;45470;-88
2022/12/04 08:06:06;;;;;;;;;40.75;34.50;;;;;2.28;79.70;100336.41;5081367;28;46504;-88
2022/12/04 08:08:35;;;;;;;;;48.50;41.75;;;;;1.13;79.99;100145.81;5070616;28;45495;-88
2022/12/04 08:11:05;;;;;;;;;48.00;38.00;;;;;2.30;79.85;100323.38;5057476;28;45398;-88
2022/12/04 08:13:30;;;;;;;;;43.50;37.00;;;;;1.48;79.75;100183.53;5073015;28;45393;-88
2022/12/04 08:15:56;;;;;;;;;52.25;40.50;;;;;1.57;79.63;100192.31;5079613;28;46284;-88
2022/12/04 08:18:22;;;;;;;;;57.00;42.50;;;;;2.99;80.37;100435.38;5053695;28;46049;-88
2022/12/04 08:20:48;;;;;;;;;70.50;52.00;;;;;2.53;80.13;100354.91;5078810;28;45410;-87
2022/12/04 08:23:13;;;;;;;;;45.75;32.75;;;;;2.11;80.12;100275.38;5080661;28;45470;-87
2022/12/04 08:25:40;;;;;;;;;50.75;39.50;;;;;3.07;80.12;100432.81;5064677;28;46543;-87
2022/12/04 08:28:06;;;;;;;;;67.50;54.00;;;;;1.33;80.11;100126.94;5087337;28;45376;-87
2022/12/04 08:30:33;;;;;;;;;42.75;31.75;;;;;2.20;79.38;100272.88;5061557;28;45517;-89
2022/12/04 08:33:04;;;;;;;;;41.00;36.00;;;;;2.37;79.63;100306.03;5065380;28;45364;-91
2022/12/04 08:35:29;;;;;;;;;47.50;40.00;;;;;2.20;80.09;100287.63;5034922;28;46469;-90
2022/12/04 08:37:55;;;;;;;;;34.25;31.75;;;;;1.97;79.81;100237.88;5030307;28;45539;-88
2022/12/04 08:40:20;;;;;;;;;47.25;38.25;;;;;2.41;79.89;100326.09;5081152;28;45355;-89
2022/12/04 08:42:46;;;;;;;;;44.25;33.00;;;;;2.74;79.36;100354.22;5080023;28;45390;-90
2022/12/04 08:45:11;;;;;;;;;42.00;32.00;;;;;2.87;79.65;100377.81;5034229;28;47161;-89
2022/12/04 08:47:36;;;;;;;;;32.75;19.50;;;;;3.26;79.50;100439.94;5067894;28;45362;-88
2022/12/04 08:50:02;;;;;;;;;44.50;39.25;;;;;3.29;79.36;100455.63;5048054;28;45329;-88
2022/12/04 08:52:27;;;;;;;;;46.50;34.50;;;;;2.96;79.56;100410.13;5074588;28;45260;-87
2022/12/04 08:54:53;;;;;;;;;53.25;39.00;;;;;2.39;78.99;100306.94;5066723;28;45494;-87
2022/12/04 08:57:18;;;;;;;;;50.75;40.75;;;;;3.09;79.30;100421.53;5063814;28;45445;-87
2022/12/04 08:59:44;;;;;;;;;44.25;39.00;;;;;2.35;79.20;100295.59;5077127;28;45795;-87
2022/12/04 09:02:12;;;;;;;;;58.25;42.75;;;;;2.41;79.17;100310.44;5059827;28;45624;-87
2022/12/04 09:04:38;;;;;;;;;38.75;35.00;;;;;2.16;78.98;100249.34;5040111;28;47137;-87
2022/12/04 09:07:03;;;;;;;;;43.50;36.25;;;;;2.41;79.50;100300.88;5048437;28;45791;-88
2022/12/04 09:09:29;;;;;;;;;44.25;38.00;;;;;2.46;78.96;100319.16;5074441;28;45430;-87
2022/12/04 09:11:54;;;;;;;;;57.00;44.75;;;;;2.47;79.31;100311.34;5065394;28;45458;-87
2022/12/04 09:14:24;;;;;;;;;43.25;39.25;;;;;3.33;79.46;100462.66;5070365;28;45914;-87
2022/12/04 09:16:53;;;;;;;;;44.75;38.25;;;;;2.98;79.25;100392.72;5081423;28;45353;-87
2022/12/04 09:19:19;;;;;;;;;48.25;39.75;;;;;2.48;78.80;100313.13;5063296;28;45461;-87
2022/12/04 09:21:44;;;;;;;;;46.00;35.50;;;;;2.76;79.22;100355.09;5032408;28;45453;-87
2022/12/04 09:24:10;;;;;;;;;41.50;35.00;;;;;2.54;79.52;100333.19;5055230;28;45631;-88
2022/12/04 09:26:35;;;;;;;;;43.75;39.00;;;;;2.57;79.22;100317.53;5077950;28;45490;-87
2022/12/04 09:29:04;;;;;;;;;49.25;38.50;;;;;1.91;79.56;100213.50;5055175;28;45443;-89
2022/12/04 09:31:31;;;;;;;;;41.50;35.00;;;;;2.36;79.72;100265.19;5039590;28;45336;-90
2022/12/04 09:34:15;;;;;;;;;37.25;29.00;;;;;2.73;79.64;100333.34;5083483;28;45849;-92
2022/12/04 09:36:52;;;;;;;;;47.75;41.25;;;;;2.40;79.45;100274.75;5070912;28;45358;-92
2022/12/04 09:39:33;;;;;;;;;45.25;35.75;;;;;2.44;79.21;100276.56;5051686;28;45583;-91
2022/12/04 09:41:58;;;;;;;;;52.50;41.50;;;;;3.01;79.40;100376.22;5052955;28;45314;-89
2022/12/04 09:44:34;;;;;;;;;49.00;38.75;;;;;2.63;79.03;100315.00;5059886;28;47368;-89
2022/12/04 09:47:09;;;;;;;;;46.00;36.25;;;;;2.93;79.42;100350.03;5085279;28;45466;-90
2022/12/04 09:49:40;;;;;;;;;36.25;32.25;;;;;2.52;79.83;100287.06;5060292;28;45237;-92
2022/12/04 09:52:43;;;;;;;;;35.75;31.50;;;;;3.58;79.95;100457.59;5054878;28;45454;-90
2022/12/04 09:55:20;;;;;;;;;43.50;32.00;;;;;3.42;79.81;100432.25;5060532;28;45895;-91
2022/12/04 09:57:51;;;;;;;;;38.00;35.75;;;;;3.02;79.47;100367.50;5043109;28;45430;-90
2022/12/04 10:00:18;;;;;;;;;47.50;36.25;;;;;3.66;79.61;100465.47;5046782;28;45374;-90
2022/12/04 10:02:50;;;;;;;;;43.25;33.00;;;;;2.49;79.88;100235.72;5044890;28;45474;-90
2022/12/04 10:05:22;;;;;;;;;42.75;32.50;;;;;2.21;79.87;100204.19;5062523;28;47448;-91
2022/12/04 10:08:08;;;;;;;;;41.25;37.50;;;;;2.86;79.70;100296.03;5049878;28;45362;-90
2022/12/04 10:10:45;;;;;;;;;44.00;39.00;;;;;2.75;79.42;100261.13;5041259;28;45488;-90
2022/12/04 10:13:39;;;;;;;;;31.00;28.00;;;;;3.60;79.15;100411.44;5067785;28;45280;-92
2022/12/04 10:16:22;;;;;;;;;53.25;42.00;;;;;3.50;79.55;100370.44;5059298;28;46253;-91
2022/12/04 10:19:15;;;;;;;;;41.50;37.75;;;;;3.90;79.20;100444.72;5056100;28;45661;-90
2022/12/04 10:22:08;;;;;;;;;58.00;42.50;;;;;3.91;78.62;100449.06;5052325;28;44904;-90
2022/12/04 10:24:51;;;;;;;;;47.75;42.00;;;;;3.91;78.72;100458.66;5054572;28;45489;-89
2022/12/04 10:27:25;;;;;;;;;49.25;41.50;;;;;3.83;79.05;100449.94;5061640;28;45435;-90
2022/12/04 10:30:16;;;;;;;;;45.75;39.00;;;;;3.62;79.01;100417.53;5058700;28;45418;-89
2022/12/04 10:32:44;;;;;;;;;36.75;30.50;;;;;3.36;79.64;100384.28;5053911;28;45406;-90
2022/12/04 10:35:18;;;;;;;;;43.00;39.50;;;;;3.38;79.32;100366.00;5039800;28;45556;-89
2022/12/04 10:37:46;;;;;;;;;49.75;38.75;;;;;2.23;79.38;100170.31;5044391;28;46946;-90
2022/12/04 10:40:27;;;;;;;;;47.25;37.75;;;;;3.71;79.59;100421.97;5077840;28;44758;-91
2022/12/04 10:43:02;;;;;;;;;45.50;34.00;;;;;3.40;78.59;100364.25;5065140;28;45528;-90
2022/12/04 10:45:27;;;;;;;;;48.75;39.50;;;;;3.11;79.16;100311.84;5081615;28;45325;-90
2022/12/04 10:47:53;;;;;;;;;49.25;35.75;;;;;3.91;79.40;100442.97;5055986;28;47136;-90
2022/12/04 10:50:22;;;;;;;;;49.75;39.25;;;;;2.35;79.44;100175.59;5060866;28;45260;-90
2022/12/04 10:52:49;;;;;;;;;57.00;42.00;;;;;2.12;78.91;100141.53;5073935;28;45532;-91
2022/12/04 10:55:26;;;;;;;;;37.50;27.25;;;;;3.48;79.09;100374.78;5062911;28;45493;-91
2022/12/04 10:57:51;;;;;;;;;44.75;38.25;;;;;3.20;79.15;100319.72;5060616;28;47132;-91
2022/12/04 11:00:30;;;;;;;;;50.25;38.00;;;;;3.64;78.96;100373.97;5065314;28;45288;-90
2022/12/04 11:02:59;;;;;;;;;48.50;37.75;;;;;3.05;79.20;100273.50;5062778;28;45276;-91
2022/12/04 11:05:36;;;;;;;;;60.50;41.50;;;;;3.03;78.93;100278.72;5056797;28;45328;-92
2022/12/04 11:08:05;;;;;;;;;45.00;37.00;;;;;3.69;79.31;100382.75;5048435;28;47190;-91
2022/12/04 11:10:42;;;;;;;;;45.00;35.00;;;;;2.30;78.46;100152.09;5045095;28;45246;-91
2022/12/04 11:13:16;;;;;;;;;37.25;32.50;;;;;3.51;79.40;100353.91;5047731;28;45420;-91
2022/12/04 11:15:50;;;;;;;;;40.00;36.75;;;;;2.06;79.16;100131.06;5048413;28;45293;-91
2022/12/04 11:18:23;;;;;;;;;45.00;36.00;;;;;4.03;79.26;100429.97;5048400;28;47985;-92
2022/12/04 11:20:58;;;;;;;;;31.25;25.75;;;;;3.64;78.71;100360.91;5057121;28;45284;-90
2022/12/04 11:23:25;;;;;;;;;60.50;41.50;;;;;2.33;78.73;100126.91;5063882;28;45473;-91
2022/12/04 11:25:54;;;;;;;;;53.25;41.00;;;;;4.06;78.83;100436.97;5062276;28;45261;-90
2022/12/04 11:28:32;;;;;;;;;50.00;41.25;;;;;2.36;79.02;100132.16;5066057;28;48167;-91
2022/12/04 11:31:01;;;;;;;;;45.75;37.75;;;;;3.53;79.31;100312.94;5094214;28;45277;-90
2022/12/04 11:33:39;;;;;;;;;43.75;36.50;;;;;2.84;79.15;100198.56;5072319;28;45528;-90
2022/12/04 11:36:27;;;;;;;;;55.25;35.00;;;;;3.96;79.58;100369.78;5070091;28;45437;-89
2022/12/04 11:39:21;;;;;;;;;57.00;45.00;;;;;3.37;78.82;100271.06;5010596;28;47371;-89
2022/12/04 11:42:04;;;;;;;;;51.50;41.00;;;;;3.76;79.11;100318.28;5044526;28;45415;-89
2022/12/04 11:44:32;;;;;;;;;47.75;38.25;;;;;2.76;79.22;100140.19;5071733;28;45350;-91